»·PEaware :: ACA314 KSFO-KSEA

ACA314 :: KSFO-KSEA

FLIGHT INFORMATION

Flight Status: Arrived
Operator:
Air Canada
More flights by this operator :: More flights under this callsign
Pilot: Tim B. (15084)
Aircraft: AIRBUS A320
(A320)
More flights by this aircraft type
Origin: KSFO San Francisco Intl
United States
Destination: KSEA Seattle-Tacoma Intl
United States
More flights between these airports :: More routes between these airports
Route: +TRUKN2 DEDHD RBL LMT HAWKZ7
File this flight plan on PilotEdge
Remarks:
Altitude:
(Current/Filed)
36,000ft
Speed:
(Current/Filed)
500kts
Departed: 04-May-19 10:07 AM
Arrived: 04-May-19 11:37 AM
Distance/Time
Traveled:
590nm/1:30
Distance/Time
To Go:
Arrived

Flight Plot

Page will automatically refresh every two minutes.

Flight plan parsing failed; only flown route is shown


Map Options




Map Legend


Flown Route
Filed Route
Departure Airport
Arrival Airport
Navaid (VOR, NDB)
Fix

Horizontal Profiles

Position Reports

Time Latitude Longitude Heading Altitude Ground
Speed
04-May-19 09:11 37.619195 -122.383546 291 32ft 0kts
04-May-19 09:12 37.619195 -122.383546 291 32ft 0kts
04-May-19 09:13 37.619195 -122.383546 291 32ft 0kts
04-May-19 09:14 37.619195 -122.383546 291 32ft 0kts
04-May-19 09:15 37.619195 -122.383546 291 32ft 0kts
04-May-19 09:16 37.619195 -122.383546 291 32ft 0kts
04-May-19 09:17 37.619195 -122.383546 291 32ft 0kts
04-May-19 09:18 37.619195 -122.383546 291 32ft 0kts
04-May-19 09:19 37.619195 -122.383546 291 32ft 0kts
04-May-19 09:20 37.619195 -122.383546 291 32ft 0kts
04-May-19 09:21 37.619195 -122.383546 291 32ft 0kts
04-May-19 09:22 37.619195 -122.383546 291 32ft 0kts
04-May-19 09:23 37.619195 -122.383546 291 32ft 0kts
04-May-19 09:24 37.619195 -122.383546 291 32ft 0kts
04-May-19 09:25 37.619195 -122.383546 291 32ft 0kts
04-May-19 09:26 37.619195 -122.383546 291 32ft 0kts
04-May-19 09:27 37.619195 -122.383546 291 32ft 0kts
04-May-19 09:28 37.619195 -122.383546 291 32ft 0kts
04-May-19 09:29 37.619195 -122.383546 291 32ft 0kts
04-May-19 09:30 37.619195 -122.383546 291 32ft 0kts
04-May-19 09:31 37.619195 -122.383546 291 32ft 0kts
04-May-19 09:32 37.619195 -122.383546 291 32ft 0kts
04-May-19 09:33 37.619195 -122.383546 291 32ft 0kts
04-May-19 09:34 37.619195 -122.383546 291 32ft 0kts
04-May-19 09:35 37.619195 -122.383546 291 32ft 0kts
04-May-19 09:36 37.619195 -122.383546 291 32ft 0kts
04-May-19 09:37 37.619195 -122.383546 291 32ft 0kts
04-May-19 09:38 37.619195 -122.383546 291 32ft 0kts
04-May-19 09:39 37.619195 -122.383546 291 32ft 0kts
04-May-19 09:40 37.619195 -122.383546 291 32ft 0kts
04-May-19 09:41 37.619195 -122.383546 291 32ft 0kts
04-May-19 09:42 37.619195 -122.383546 291 32ft 0kts
04-May-19 09:43 37.619195 -122.383546 291 32ft 0kts
04-May-19 09:44 37.619195 -122.383546 291 32ft 0kts
04-May-19 09:45 37.619195 -122.383546 291 32ft 0kts
04-May-19 09:46 37.619195 -122.383546 291 32ft 0kts
04-May-19 09:47 37.619195 -122.383546 291 32ft 0kts
04-May-19 09:48 37.619195 -122.383546 291 32ft 0kts
04-May-19 09:49 37.619195 -122.383546 291 32ft 0kts
04-May-19 09:50 37.619195 -122.383546 291 32ft 0kts
04-May-19 09:51 37.619195 -122.383546 291 32ft 0kts
04-May-19 09:52 37.619195 -122.383546 291 32ft 0kts
04-May-19 09:53 37.619195 -122.383546 291 32ft 0kts
04-May-19 09:54 37.619195 -122.383546 291 32ft 0kts
04-May-19 09:55 37.619195 -122.383546 291 32ft 0kts
04-May-19 09:56 37.619195 -122.383546 291 32ft 0kts
04-May-19 09:57 37.619195 -122.383546 291 32ft 0kts
04-May-19 09:58 37.619016 -122.382954 289 32ft 1kts
04-May-19 09:59 37.618882 -122.382945 29 32ft 0kts
04-May-19 10:00 37.618882 -122.382945 29 32ft 0kts
04-May-19 10:01 37.619307 -122.382674 27 32ft 3kts
04-May-19 10:02 37.618408 -122.379801 148 32ft 13kts
04-May-19 10:03 37.614679 -122.380924 207 32ft 17kts
04-May-19 10:04 37.610151 -122.383943 211 32ft 20kts
04-May-19 10:05 37.608409 -122.383725 118 32ft 0kts
04-May-19 10:06 37.609682 -122.381749 28 32ft 52kts
04-May-19 10:07 37.641772 -122.351295 54 1906ft 196kts
04-May-19 10:08 37.679195 -122.286929 56 4460ft 264kts
04-May-19 10:09 37.727030 -122.214179 22 7664ft 300kts
04-May-19 10:10 37.811579 -122.198804 5 10861ft 321kts
04-May-19 10:11 37.902767 -122.184156 5 13372ft 356kts
04-May-19 10:12 38.003607 -122.167630 5 15857ft 380kts
04-May-19 10:13 38.108457 -122.150367 5 18068ft 400kts
04-May-19 10:14 38.219110 -122.132080 5 20154ft 414kts
04-May-19 10:15 38.332256 -122.113320 4 22064ft 426kts
04-May-19 10:16 38.449456 -122.108830 350 23815ft 432kts
04-May-19 10:17 38.569986 -122.120357 352 25444ft 444kts
04-May-19 10:18 38.694368 -122.129800 352 26942ft 455kts
04-May-19 10:19 38.820483 -122.139206 352 28305ft 464kts
04-May-19 10:20 38.949641 -122.148867 352 29395ft 478kts
04-May-19 10:21 39.079570 -122.158600 351 30157ft 496kts
04-May-19 10:22 39.214705 -122.168786 351 31223ft 503kts
04-May-19 10:23 39.354445 -122.179356 351 32136ft 511kts
04-May-19 10:24 39.487339 -122.189435 351 32123ft 510kts
04-May-19 10:25 39.626849 -122.200071 351 32118ft 510kts
04-May-19 10:26 39.767193 -122.210808 351 32114ft 509kts
04-May-19 10:27 39.907025 -122.221545 351 32102ft 509kts
04-May-19 10:28 40.047029 -122.232344 351 32084ft 510kts
04-May-19 10:29 40.184107 -122.215940 7 32085ft 518kts
04-May-19 10:30 40.321065 -122.182831 7 32084ft 518kts
04-May-19 10:31 40.457088 -122.149923 7 32077ft 518kts
04-May-19 10:32 40.592710 -122.116966 7 32075ft 518kts
04-May-19 10:33 40.728418 -122.083840 7 32076ft 518kts
04-May-19 10:34 40.865581 -122.050219 7 32077ft 518kts
04-May-19 10:35 41.003976 -122.016158 7 32074ft 520kts
04-May-19 10:36 41.139306 -121.982681 8 32069ft 532kts
04-May-19 10:37 41.281215 -121.947464 8 31974ft 532kts
04-May-19 10:38 41.423326 -121.912038 8 31976ft 532kts
04-May-19 10:39 41.566192 -121.876254 8 31979ft 532kts
04-May-19 10:40 41.710553 -121.839930 8 31990ft 532kts
04-May-19 10:41 41.853696 -121.803750 8 31994ft 532kts
04-May-19 10:42 41.997168 -121.767321 8 31994ft 532kts
04-May-19 10:43 42.138991 -121.731144 8 31992ft 531kts
04-May-19 10:44 42.282576 -121.719200 344 31992ft 520kts
04-May-19 10:45 42.423332 -121.757456 343 31994ft 519kts
04-May-19 10:46 42.563650 -121.794300 343 31994ft 519kts
04-May-19 10:47 42.703497 -121.831088 343 31994ft 520kts
04-May-19 10:48 42.844735 -121.868416 343 31993ft 520kts
04-May-19 10:49 42.986532 -121.906078 343 31991ft 528kts
04-May-19 10:50 43.129680 -121.944230 343 31978ft 536kts
04-May-19 10:51 43.274414 -121.983059 343 31938ft 534kts
04-May-19 10:52 43.420403 -122.020158 345 31907ft 535kts
04-May-19 10:53 43.566653 -122.054699 345 31941ft 536kts
04-May-19 10:54 43.712990 -122.089464 345 31939ft 536kts
04-May-19 10:55 43.858990 -122.124321 345 31939ft 536kts
04-May-19 10:56 44.005623 -122.159499 345 31938ft 535kts
04-May-19 10:57 44.149819 -122.194262 345 31919ft 535kts
04-May-19 10:58 44.295957 -122.229677 345 31901ft 536kts
04-May-19 10:59 44.441865 -122.265211 345 31827ft 534kts
04-May-19 11:00 44.587017 -122.300744 345 31816ft 534kts
04-May-19 11:01 44.731960 -122.336399 345 31823ft 534kts
04-May-19 11:02 44.876623 -122.372174 345 31829ft 535kts
04-May-19 11:03 45.017766 -122.407252 344 31829ft 535kts
04-May-19 11:04 45.159114 -122.442553 344 31829ft 536kts
04-May-19 11:05 45.302597 -122.478575 344 31829ft 537kts
04-May-19 11:06 45.444552 -122.514397 344 31829ft 536kts
04-May-19 11:07 45.575069 -122.547497 344 31828ft 537kts
04-May-19 11:09 45.717090 -122.583681 344 31829ft 536kts
04-May-19 11:10 45.858787 -122.618972 345 31001ft 526kts
04-May-19 11:11 45.998305 -122.653565 343 29215ft 509kts
04-May-19 11:12 46.129958 -122.684525 346 27498ft 494kts
04-May-19 11:13 46.257863 -122.709805 346 25240ft 471kts
04-May-19 11:14 46.382343 -122.724396 353 21971ft 448kts
04-May-19 11:15 46.500431 -122.728673 353 18759ft 421kts
04-May-19 11:16 46.609477 -122.732620 353 16352ft 401kts
04-May-19 11:17 46.703992 -122.736052 353 14800ft 382kts
04-May-19 11:18 46.800953 -122.721327 35 14727ft 386kts
04-May-19 11:19 46.879750 -122.628212 39 13209ft 375kts
04-May-19 11:20 46.957710 -122.553140 14 12705ft 352kts
04-May-19 11:21 47.046630 -122.514481 12 11621ft 342kts
04-May-19 11:22 47.128733 -122.491361 359 10614ft 319kts
04-May-19 11:23 47.205675 -122.477466 358 9609ft 301kts
04-May-19 11:24 47.274089 -122.467252 9 8418ft 300kts
04-May-19 11:25 47.347957 -122.455949 6 7712ft 289kts
04-May-19 11:26 47.420187 -122.455371 2 7707ft 285kts
04-May-19 11:27 47.494644 -122.455305 353 7184ft 253kts
04-May-19 11:28 47.561885 -122.455905 354 6269ft 239kts
04-May-19 11:29 47.626722 -122.456582 357 4413ft 232kts
04-May-19 11:30 47.687886 -122.457127 2 3718ft 216kts
04-May-19 11:31 47.705359 -122.390353 133 3717ft 230kts
04-May-19 11:31 47.662979 -122.348207 147 3714ft 231kts
04-May-19 11:33 47.604056 -122.306100 178 3621ft 214kts
04-May-19 11:34 47.546923 -122.306993 179 2084ft 223kts
04-May-19 11:34 47.501149 -122.307582 183 1102ft 177kts
04-May-19 11:36 47.455023 -122.307825 180 431ft 128kts
04-May-19 11:36 47.446118 -122.306142 79 395ft 9kts

Navigation Log

Ident Type
Flight plan parsing failed, navigation log unavailable